createdAt,value
2018-07-10T00:00:37.152Z,16.34
2018-07-10T00:03:33.369Z,16.25
2018-07-10T00:07:24.573Z,16.19
2018-07-10T00:11:17.822Z,16.10
2018-07-10T00:13:50.806Z,15.98
2018-07-10T00:16:24.981Z,15.94
2018-07-10T00:19:00.170Z,15.98
2018-07-10T00:21:34.315Z,15.91
2018-07-10T00:24:08.099Z,15.80
2018-07-10T00:26:42.889Z,15.75
2018-07-10T00:29:16.239Z,15.63
2018-07-10T00:31:50.014Z,15.52
2018-07-10T00:34:38.826Z,15.36
2018-07-10T00:37:13.449Z,15.19
2018-07-10T00:39:46.078Z,15.03
2018-07-10T00:42:20.021Z,14.93
2018-07-10T00:44:55.090Z,14.82
2018-07-10T00:47:49.612Z,14.82
2018-07-10T00:50:31.228Z,14.68
2018-07-10T00:53:05.732Z,14.63
2018-07-10T00:55:40.605Z,14.56
2018-07-10T00:58:16.845Z,14.52
2018-07-10T01:00:54.113Z,14.60
2018-07-10T01:03:45.681Z,14.66
2018-07-10T01:06:21.148Z,14.80
2018-07-10T01:08:54.849Z,14.92
2018-07-10T01:11:29.151Z,14.91
2018-07-10T01:14:02.585Z,14.94
2018-07-10T01:16:38.917Z,15.04
2018-07-10T01:19:16.442Z,15.04
2018-07-10T01:21:51.044Z,15.03
2018-07-10T01:24:28.361Z,15.03
2018-07-10T01:27:02.664Z,15.11
2018-07-10T01:29:42.263Z,15.09
2018-07-10T01:32:17.794Z,15.17
2018-07-10T01:34:52.077Z,15.20
2018-07-10T01:37:26.042Z,15.20
2018-07-10T01:40:03.461Z,15.10
2018-07-10T01:42:38.713Z,15.00
2018-07-10T01:45:20.989Z,14.94
2018-07-10T01:47:56.246Z,14.66
2018-07-10T01:50:30.647Z,14.46
2018-07-10T01:53:04.609Z,14.20
2018-07-10T01:55:37.577Z,13.95
2018-07-10T01:58:12.514Z,13.88
2018-07-10T02:00:45.689Z,13.86
2018-07-10T02:03:18.550Z,13.87
2018-07-10T02:05:51.430Z,13.88
2018-07-10T02:08:25.164Z,13.99
2018-07-10T02:10:58.369Z,14.00
2018-07-10T02:13:31.189Z,14.00
2018-07-10T02:16:04.497Z,14.03
2018-07-10T02:18:38.258Z,14.06
2018-07-10T02:21:14.524Z,14.08
2018-07-10T02:23:48.785Z,14.10
2018-07-10T02:26:27.233Z,14.12
2018-07-10T02:29:00.551Z,14.12
2018-07-10T02:31:33.140Z,14.12
2018-07-10T02:34:07.008Z,14.13
2018-07-10T02:36:39.894Z,14.13
2018-07-10T02:39:16.129Z,14.19
2018-07-10T02:41:50.372Z,14.13
2018-07-10T02:44:25.651Z,14.11
2018-07-10T02:47:02.590Z,14.09
2018-07-10T02:49:40.439Z,14.07
2018-07-10T02:52:17.833Z,14.07
2018-07-10T02:54:53.112Z,14.06
2018-07-10T02:57:30.345Z,14.05
2018-07-10T03:00:05.319Z,14.04
2018-07-10T03:02:42.744Z,14.11
2018-07-10T03:05:16.669Z,14.14
2018-07-10T03:07:53.045Z,14.10
2018-07-10T03:10:28.538Z,14.05
2018-07-10T03:13:04.278Z,14.05
2018-07-10T03:15:38.393Z,14.02
2018-07-10T03:18:18.081Z,13.98
2018-07-10T03:20:53.004Z,13.97
2018-07-10T03:23:27.831Z,13.96
2018-07-10T03:26:00.958Z,13.95
2018-07-10T03:28:33.938Z,13.95
2018-07-10T03:31:09.129Z,13.91
2018-07-10T03:33:42.337Z,13.91
2018-07-10T03:36:15.783Z,13.90
2018-07-10T03:38:50.389Z,13.91
2018-07-10T03:41:24.458Z,13.92
2018-07-10T03:44:00.446Z,13.93
2018-07-10T03:46:41.645Z,13.97
2018-07-10T03:49:16.117Z,13.96
2018-07-10T03:51:56.925Z,13.95
2018-07-10T03:54:36.940Z,13.93
2018-07-10T03:57:15.429Z,13.94
2018-07-10T04:00:05.180Z,13.97
2018-07-10T04:02:49.354Z,13.98
2018-07-10T04:05:23.774Z,13.98
2018-07-10T04:08:03.072Z,13.96
2018-07-10T04:10:37.901Z,13.96
2018-07-10T04:13:21.319Z,13.96
2018-07-10T04:16:02.839Z,13.97
2018-07-10T04:18:38.201Z,13.98
2018-07-10T04:21:26.659Z,14.00
2018-07-10T04:24:15.032Z,14.00
2018-07-10T04:27:31.854Z,14.06
2018-07-10T04:30:16.166Z,14.09
2018-07-10T04:32:50.943Z,14.09
2018-07-10T04:35:31.445Z,14.10
2018-07-10T04:38:06.038Z,14.09
2018-07-10T04:40:46.325Z,14.05
2018-07-10T04:43:31.250Z,14.06
2018-07-10T04:46:07.090Z,14.02
2018-07-10T04:48:59.373Z,14.07
2018-07-10T04:51:42.827Z,14.14
2018-07-10T04:54:38.990Z,14.16
2018-07-10T04:57:26.531Z,14.18
2018-07-10T05:00:06.392Z,14.23
2018-07-10T05:02:42.031Z,14.29
2018-07-10T05:05:18.685Z,14.32
2018-07-10T05:07:56.307Z,14.38
2018-07-10T05:10:35.620Z,14.46
2018-07-10T05:13:11.197Z,14.56
2018-07-10T05:15:56.917Z,14.57
2018-07-10T05:18:32.741Z,14.52
2018-07-10T05:21:19.252Z,14.47
2018-07-10T05:23:52.264Z,14.45
2018-07-10T05:26:28.958Z,14.36
2018-07-10T05:29:04.708Z,14.30
2018-07-10T05:31:40.313Z,14.30
2018-07-10T05:34:15.716Z,14.27
2018-07-10T05:36:52.973Z,14.28
2018-07-10T05:39:33.698Z,14.33
2018-07-10T05:42:07.033Z,14.37
2018-07-10T05:44:47.994Z,14.45
2018-07-10T05:47:21.437Z,14.57
2018-07-10T05:50:14.376Z,14.72
2018-07-10T05:52:50.503Z,14.89
2018-07-10T05:55:30.281Z,15.06
2018-07-10T05:58:04.578Z,15.20
2018-07-10T06:00:38.478Z,15.30
2018-07-10T06:03:11.572Z,15.25
2018-07-10T06:05:45.244Z,15.20
2018-07-10T06:08:19.457Z,15.19
2018-07-10T06:10:55.288Z,15.13
2018-07-10T06:13:30.064Z,15.07
2018-07-10T06:16:04.181Z,15.07
2018-07-10T06:18:42.490Z,14.90
2018-07-10T06:21:18.073Z,14.74
2018-07-10T06:24:00.955Z,14.86
2018-07-10T06:26:42.525Z,15.04
2018-07-10T06:29:33.160Z,15.27
2018-07-10T06:32:19.030Z,15.39
2018-07-10T06:35:30.025Z,15.51
2018-07-10T06:38:11.464Z,15.65
2018-07-10T06:40:50.792Z,15.94
2018-07-10T06:43:51.418Z,16.06
2018-07-10T06:46:43.461Z,16.15
2018-07-10T06:49:26.937Z,16.22
2018-07-10T06:52:21.077Z,16.28
2018-07-10T06:55:11.868Z,16.22
2018-07-10T06:57:54.345Z,16.27
2018-07-10T07:00:29.693Z,16.31
2018-07-10T07:03:04.840Z,16.33
2018-07-10T07:05:39.382Z,16.30
2018-07-10T07:08:18.651Z,16.26
2018-07-10T07:10:52.582Z,16.15
2018-07-10T07:13:33.374Z,16.15
2018-07-10T07:16:09.325Z,16.20
2018-07-10T07:18:45.724Z,16.35
2018-07-10T07:21:20.405Z,16.41
2018-07-10T07:23:54.233Z,16.56
2018-07-10T07:26:27.928Z,16.55
2018-07-10T07:29:04.204Z,16.49
2018-07-10T07:31:37.685Z,16.40
2018-07-10T07:34:11.417Z,16.28
2018-07-10T07:36:45.774Z,16.29
2018-07-10T07:39:22.420Z,16.47
2018-07-10T07:41:59.971Z,16.57
2018-07-10T07:44:33.863Z,16.73
2018-07-10T07:47:11.682Z,16.68
2018-07-10T07:49:50.848Z,16.54
2018-07-10T07:52:31.985Z,16.56
2018-07-10T07:55:15.392Z,16.48
2018-07-10T07:57:49.134Z,16.69
2018-07-10T08:00:23.963Z,16.60
2018-07-10T08:03:01.148Z,16.69
2018-07-10T08:05:45.551Z,16.73
2018-07-10T08:08:21.702Z,16.75
2018-07-10T08:11:04.545Z,16.91
2018-07-10T08:13:38.017Z,16.93
2018-07-10T08:16:17.179Z,16.97
2018-07-10T08:18:51.450Z,17.08
2018-07-10T08:21:26.785Z,17.14
2018-07-10T08:24:02.612Z,17.21
2018-07-10T08:26:41.565Z,17.13
2018-07-10T08:29:17.768Z,17.08
2018-07-10T08:31:55.396Z,17.03
2018-07-10T08:34:31.675Z,16.88
2018-07-10T08:37:09.302Z,16.92
2018-07-10T08:39:42.892Z,16.89
2018-07-10T08:42:18.507Z,16.99
2018-07-10T08:44:59.542Z,16.89
2018-07-10T08:47:39.020Z,16.84
2018-07-10T08:50:17.692Z,16.59
2018-07-10T08:52:56.076Z,16.51
2018-07-10T08:55:29.464Z,16.44
2018-07-10T08:58:03.951Z,16.57
2018-07-10T09:00:39.697Z,16.71
2018-07-10T09:03:21.032Z,16.59
2018-07-10T09:05:58.309Z,16.44
2018-07-10T09:08:32.799Z,16.44
2018-07-10T09:11:06.397Z,16.50
2018-07-10T09:13:40.802Z,16.54
2018-07-10T09:16:24.334Z,16.32
2018-07-10T09:18:59.818Z,16.18
2018-07-10T09:21:36.630Z,16.23
2018-07-10T09:24:10.496Z,16.06
2018-07-10T09:26:53.521Z,15.88
2018-07-10T09:29:28.744Z,16.08
2018-07-10T09:32:01.689Z,16.18
2018-07-10T09:34:39.149Z,16.15
2018-07-10T09:37:21.596Z,15.73
2018-07-10T09:40:05.037Z,15.39
2018-07-10T09:43:01.633Z,15.18
2018-07-10T09:45:37.490Z,14.99
2018-07-10T09:48:10.626Z,14.92
2018-07-10T09:50:47.070Z,14.99
2018-07-10T09:53:20.424Z,15.12
2018-07-10T09:55:54.474Z,15.23
2018-07-10T09:58:31.456Z,15.25
2018-07-10T10:01:11.753Z,15.37
2018-07-10T10:03:46.981Z,15.30
2018-07-10T10:06:25.579Z,15.27
2018-07-10T10:08:59.095Z,15.17
2018-07-10T10:11:32.972Z,15.06
2018-07-10T10:14:05.999Z,15.12
2018-07-10T10:16:42.769Z,15.31
2018-07-10T10:19:23.402Z,15.55
2018-07-10T10:22:01.297Z,15.87
2018-07-10T10:24:35.529Z,16.14
2018-07-10T10:27:12.869Z,16.21
2018-07-10T10:29:47.107Z,16.27
2018-07-10T10:32:21.482Z,16.26
2018-07-10T10:34:56.189Z,15.97
2018-07-10T10:37:31.818Z,15.84
2018-07-10T10:40:06.889Z,15.74
2018-07-10T10:42:42.501Z,15.73
2018-07-10T10:45:19.153Z,15.62
2018-07-10T10:47:53.413Z,15.49
2018-07-10T10:50:29.388Z,15.41
2018-07-10T10:53:10.337Z,15.33
2018-07-10T10:55:43.266Z,15.46
2018-07-10T10:58:20.879Z,15.53
2018-07-10T11:01:02.962Z,15.58
2018-07-10T11:03:41.318Z,15.59
2018-07-10T11:06:17.455Z,15.57
2018-07-10T11:08:51.494Z,15.59
2018-07-10T11:11:28.357Z,15.67
2018-07-10T11:14:09.369Z,15.79
2018-07-10T11:16:52.631Z,15.95
2018-07-10T11:20:02.869Z,16.06
2018-07-10T11:23:00.447Z,16.14
2018-07-10T11:25:43.870Z,16.18
2018-07-10T11:28:18.563Z,16.23
2018-07-10T11:30:53.525Z,16.24
2018-07-10T11:33:29.125Z,16.27
2018-07-10T11:36:03.026Z,16.25
2018-07-10T11:38:45.305Z,16.29
2018-07-10T11:41:23.622Z,16.36
2018-07-10T11:44:09.104Z,16.35
2018-07-10T11:46:42.892Z,16.47
2018-07-10T11:49:16.203Z,16.46
2018-07-10T11:51:52.321Z,16.47
2018-07-10T11:54:29.792Z,16.52
2018-07-10T11:57:06.677Z,16.58
2018-07-10T11:59:43.921Z,16.71
2018-07-10T12:02:20.505Z,16.80
2018-07-10T12:05:00.359Z,16.79
2018-07-10T12:07:39.489Z,16.76
2018-07-10T12:10:29.669Z,16.58
2018-07-10T12:13:03.704Z,16.52
2018-07-10T12:15:39.974Z,16.48
2018-07-10T12:18:16.540Z,16.56
2018-07-10T12:20:52.106Z,16.48
2018-07-10T12:23:25.961Z,16.48
2018-07-10T12:26:05.531Z,16.53
2018-07-10T12:28:50.677Z,16.51
2018-07-10T12:31:36.746Z,16.38
2018-07-10T12:34:12.207Z,16.33
2018-07-10T12:36:48.039Z,16.14
2018-07-10T12:39:21.245Z,15.95
2018-07-10T12:41:56.641Z,15.82
2018-07-10T12:44:31.921Z,15.59
2018-07-10T12:47:09.650Z,15.41
2018-07-10T12:49:46.817Z,15.38
2018-07-10T12:52:21.881Z,15.39
2018-07-10T12:54:59.806Z,15.43
2018-07-10T12:57:49.947Z,15.37
2018-07-10T13:00:29.806Z,15.43
2018-07-10T13:03:15.524Z,15.50
2018-07-10T13:05:57.486Z,15.61
2018-07-10T13:08:33.405Z,15.76
2018-07-10T13:11:07.164Z,15.81
2018-07-10T13:13:51.386Z,15.78
2018-07-10T13:16:26.018Z,15.88
2018-07-10T13:19:02.946Z,15.94
2018-07-10T13:21:39.681Z,16.09
2018-07-10T13:24:16.543Z,16.37
2018-07-10T13:26:51.173Z,16.60
2018-07-10T13:29:26.337Z,16.82
2018-07-10T13:32:06.297Z,17.27
2018-07-10T13:34:42.546Z,17.65
2018-07-10T13:37:22.619Z,17.99
2018-07-10T13:40:03.300Z,18.11
2018-07-10T13:42:59.311Z,17.98
2018-07-10T13:45:34.654Z,17.77
2018-07-10T13:48:15.510Z,17.88
2018-07-10T13:50:54.101Z,17.87
2018-07-10T13:53:32.700Z,17.85
2018-07-10T13:56:14.851Z,17.90
2018-07-10T13:58:52.960Z,18.09
2018-07-10T14:01:30.608Z,18.47
2018-07-10T14:04:08.318Z,18.96
2018-07-10T14:06:43.845Z,19.05
2018-07-10T14:09:22.357Z,18.88
2018-07-10T14:12:01.642Z,18.89
2018-07-10T14:14:37.611Z,18.75
2018-07-10T14:17:27.107Z,18.76
2018-07-10T14:20:08.163Z,18.69
2018-07-10T14:22:44.612Z,18.70
2018-07-10T14:25:20.798Z,18.74
2018-07-10T14:28:01.053Z,18.68
2018-07-10T14:30:37.273Z,18.78
2018-07-10T14:33:11.111Z,19.21
2018-07-10T14:35:47.535Z,19.32
2018-07-10T14:38:31.342Z,19.13
2018-07-10T14:41:09.142Z,18.97
2018-07-10T14:43:49.101Z,18.94
2018-07-10T14:46:29.853Z,18.82
2018-07-10T14:49:17.901Z,18.75
2018-07-10T14:51:57.339Z,18.80
2018-07-10T14:54:32.103Z,18.66
2018-07-10T14:57:06.977Z,18.50
2018-07-10T14:59:44.006Z,18.53
2018-07-10T15:02:17.243Z,18.40
2018-07-10T15:04:51.530Z,18.42
2018-07-10T15:11:06.504Z,19.70
2018-07-10T15:14:01.299Z,19.90
2018-07-10T15:16:40.644Z,20.11
2018-07-10T15:19:30.607Z,20.09
2018-07-10T15:22:05.235Z,20.09
2018-07-10T15:24:41.228Z,19.97
2018-07-10T15:27:16.781Z,19.73
2018-07-10T15:29:55.242Z,19.48
2018-07-10T15:32:36.902Z,19.45
2018-07-10T15:35:21.543Z,19.37
2018-07-10T15:37:58.459Z,19.56
2018-07-10T15:40:40.580Z,19.68
2018-07-10T15:43:26.474Z,19.61
2018-07-10T15:46:20.374Z,19.12
2018-07-10T15:49:02.497Z,19.02
2018-07-10T15:51:47.397Z,18.96
2018-07-10T15:54:45.551Z,18.82
2018-07-10T15:57:47.306Z,18.86
2018-07-10T16:00:21.765Z,18.94
2018-07-10T16:02:57.769Z,18.88
2018-07-10T16:05:47.002Z,18.77
2018-07-10T16:08:27.192Z,18.70
2018-07-10T16:11:09.448Z,18.59
2018-07-10T16:13:47.753Z,18.32
2018-07-10T16:16:33.730Z,18.27
2018-07-10T16:19:31.516Z,18.36
2018-07-10T16:22:22.424Z,18.29
2018-07-10T16:25:06.181Z,18.33
2018-07-10T16:27:51.753Z,18.44
2018-07-10T16:30:35.053Z,18.71
2018-07-10T16:33:24.303Z,18.66
2018-07-10T16:36:01.620Z,18.61
2018-07-10T16:38:37.897Z,18.67
2018-07-10T16:41:24.817Z,18.65
2018-07-10T16:44:06.425Z,18.58
2018-07-10T16:47:03.326Z,18.61
2018-07-10T16:50:03.551Z,18.52
2018-07-10T16:53:05.091Z,18.34
2018-07-10T16:55:41.484Z,18.08
2018-07-10T16:58:44.992Z,17.90
2018-07-10T17:01:22.555Z,17.48
2018-07-10T17:04:09.899Z,17.28
2018-07-10T17:06:46.043Z,17.08
2018-07-10T17:09:20.291Z,17.06
2018-07-10T17:12:17.247Z,17.01
2018-07-10T17:15:15.725Z,17.02
2018-07-10T17:18:00.627Z,16.91
2018-07-10T17:20:44.040Z,16.52
2018-07-10T17:23:24.800Z,16.28
2018-07-10T17:26:01.150Z,16.15
2018-07-10T17:32:22.746Z,16.07
2018-07-10T17:34:58.375Z,16.08
2018-07-10T17:37:49.322Z,16.00
2018-07-10T17:40:26.379Z,15.95
2018-07-10T17:43:06.588Z,15.92
2018-07-10T17:45:44.758Z,16.00
2018-07-10T17:48:22.349Z,16.18
2018-07-10T17:50:59.614Z,16.40
2018-07-10T17:53:38.578Z,16.53
2018-07-10T17:56:19.114Z,16.59
2018-07-10T17:58:59.467Z,16.56
2018-07-10T18:01:36.162Z,16.54
2018-07-10T18:04:21.035Z,16.56
2018-07-10T18:07:10.611Z,16.52
2018-07-10T18:09:59.771Z,16.50
2018-07-10T18:12:52.997Z,16.38
2018-07-10T18:15:41.165Z,16.28
2018-07-10T18:18:20.195Z,16.36
2018-07-10T18:21:10.675Z,16.40
2018-07-10T18:23:47.571Z,16.41
2018-07-10T18:26:53.799Z,16.46
2018-07-10T18:29:28.745Z,16.37
2018-07-10T18:32:06.805Z,16.22
2018-07-10T18:34:41.785Z,16.08
2018-07-10T18:37:18.240Z,15.95
2018-07-10T18:40:05.683Z,15.83
2018-07-10T18:42:45.309Z,15.85
2018-07-10T18:45:22.367Z,15.85
2018-07-10T18:47:57.496Z,15.84
2018-07-10T18:50:37.479Z,15.85
2018-07-10T18:53:22.866Z,15.87
2018-07-10T18:56:05.801Z,15.88
2018-07-10T18:59:12.927Z,15.87
2018-07-10T19:02:20.197Z,15.81
2018-07-10T19:05:17.927Z,15.65
2018-07-10T19:07:56.600Z,15.59
2018-07-10T19:10:31.646Z,15.46
2018-07-10T19:13:07.813Z,15.33
2018-07-10T19:15:46.526Z,15.34
2018-07-10T19:18:26.129Z,15.22
2018-07-10T19:21:26.626Z,15.09
2018-07-10T19:24:13.709Z,15.04
2018-07-10T19:26:54.717Z,14.94
2018-07-10T19:30:20.471Z,14.81
2018-07-10T19:32:55.996Z,14.75
2018-07-10T19:35:31.488Z,14.76
2018-07-10T19:38:09.719Z,14.78
2018-07-10T19:40:47.725Z,14.82
2018-07-10T19:43:43.866Z,14.89
2018-07-10T19:46:21.877Z,14.98
2018-07-10T19:49:06.782Z,15.03
2018-07-10T19:51:52.010Z,15.00
2018-07-10T19:54:29.415Z,14.97
2018-07-10T19:57:45.743Z,14.93
2018-07-10T20:00:41.390Z,14.88
2018-07-10T20:03:44.795Z,14.82
2018-07-10T20:06:46.399Z,14.75
2018-07-10T20:09:23.525Z,14.87
2018-07-10T20:12:29.890Z,14.83
2018-07-10T20:16:15.259Z,14.78
2018-07-10T20:19:34.052Z,14.68
2018-07-10T20:22:56.600Z,14.53
2018-07-10T20:26:04.839Z,14.39
2018-07-10T20:29:06.807Z,14.39
2018-07-10T20:32:18.767Z,14.21
2018-07-10T20:35:33.166Z,14.21
2018-07-10T20:38:33.817Z,14.00
2018-07-10T20:41:08.685Z,13.80
2018-07-10T20:43:52.369Z,13.56
2018-07-10T20:46:43.677Z,13.42
2018-07-10T20:49:49.641Z,13.54
2018-07-10T20:52:54.185Z,13.55
2018-07-10T20:55:59.481Z,13.64
2018-07-10T20:59:03.288Z,13.56
2018-07-10T21:02:08.624Z,13.48
2018-07-10T21:05:34.791Z,13.34
2018-07-10T21:09:08.524Z,13.26
2018-07-10T21:12:34.460Z,13.30
2018-07-10T21:15:31.170Z,13.21
2018-07-10T21:18:48.824Z,13.06
2018-07-10T21:22:22.042Z,12.92
2018-07-10T21:25:47.483Z,12.87
2018-07-10T21:29:01.356Z,12.74
2018-07-10T21:32:05.892Z,12.87
2018-07-10T21:34:52.396Z,12.97
2018-07-10T21:38:10.701Z,12.92
2018-07-10T21:41:50.570Z,12.89
2018-07-10T21:45:10.286Z,12.82
2018-07-10T21:48:58.688Z,12.72
2018-07-10T21:51:51.433Z,12.66
2018-07-10T21:54:46.364Z,12.65
2018-07-10T21:57:31.822Z,12.62
2018-07-10T22:00:09.774Z,12.41
2018-07-10T22:02:47.870Z,12.24
2018-07-10T22:05:27.858Z,11.91
2018-07-10T22:08:09.257Z,11.69
2018-07-10T22:10:51.861Z,11.42
2018-07-10T22:13:26.882Z,11.25
2018-07-10T22:16:02.924Z,11.14
2018-07-10T22:18:38.669Z,11.00
2018-07-10T22:21:15.889Z,10.85
2018-07-10T22:23:54.044Z,10.78
2018-07-10T22:26:32.635Z,10.95
2018-07-10T22:29:07.675Z,10.93
2018-07-10T22:31:48.418Z,10.81
2018-07-10T22:34:22.909Z,10.76
2018-07-10T22:36:58.560Z,10.69
2018-07-10T22:39:33.409Z,10.58
2018-07-10T22:42:06.698Z,10.51
2018-07-10T22:44:55.782Z,10.50
2018-07-10T22:47:38.711Z,10.54
2018-07-10T22:53:02.531Z,10.89
2018-07-10T22:55:36.455Z,10.96
2018-07-10T22:58:11.377Z,11.09
2018-07-10T23:00:46.165Z,11.31
2018-07-10T23:03:22.166Z,11.46
2018-07-10T23:06:03.895Z,11.57
2018-07-10T23:08:38.366Z,11.60
2018-07-10T23:11:16.141Z,11.69
2018-07-10T23:13:52.464Z,11.79
2018-07-10T23:16:37.015Z,11.92
2018-07-10T23:19:13.440Z,11.99
2018-07-10T23:21:51.390Z,11.94
2018-07-10T23:24:29.200Z,11.95
2018-07-10T23:27:04.264Z,11.92
2018-07-10T23:29:46.530Z,11.85
2018-07-10T23:32:22.225Z,11.66
2018-07-10T23:34:55.949Z,11.40
2018-07-10T23:37:46.193Z,11.19
2018-07-10T23:40:23.234Z,11.11
2018-07-10T23:43:01.225Z,11.28
2018-07-10T23:45:38.553Z,11.43
2018-07-10T23:48:14.661Z,11.44
2018-07-10T23:50:58.241Z,11.30
2018-07-10T23:53:52.700Z,11.22
2018-07-10T23:56:27.231Z,11.23
2018-07-10T23:59:02.382Z,11.29
